Time;durP1;ratioP1;P1;durP2;ratioP2;P2;SDS_P1;SDS_P2;PMS_P1;PMS_P2;Temp;Humidity;BMP_temperature;BMP_pressure;BME280_temperature;BME280_humidity;BME280_pressure;Samples;Min_cycle;Max_cycle;Signal;HPM_P1;HPM_P2
2022/12/09 00:02:09;;;;;;;17.90;10.67;;;8.40;99.90;;;8.38;70.20;94831.69;5073922;28;20451;-54
2022/12/09 00:04:37;;;;;;;23.33;10.80;;;8.40;99.90;;;8.33;70.14;94836.47;5073561;28;20493;-56
2022/12/09 00:07:04;;;;;;;19.30;10.43;;;8.40;99.90;;;8.31;70.84;94840.19;5067473;28;20454;-55
2022/12/09 00:09:31;;;;;;;16.43;9.37;;;8.40;99.90;;;8.28;70.53;94843.06;5074152;28;20457;-55
2022/12/09 00:11:58;;;;;;;18.40;10.80;;;8.30;99.90;;;8.29;71.06;94853.41;5071103;28;20524;-57
2022/12/09 00:14:26;;;;;;;13.57;9.37;;;8.30;99.90;;;8.30;70.66;94852.44;5080687;28;20539;-57
2022/12/09 00:16:53;;;;;;;20.93;10.87;;;8.30;99.90;;;8.33;70.66;94852.19;5072734;28;20491;-55
2022/12/09 00:19:21;;;;;;;18.70;10.87;;;8.40;99.90;;;8.34;70.76;94843.38;5083100;28;20489;-58
2022/12/09 00:21:49;;;;;;;20.30;12.10;;;8.40;99.90;;;8.33;70.66;94844.34;5076656;28;20477;-54
2022/12/09 00:24:16;;;;;;;23.57;11.57;;;8.40;99.90;;;8.33;70.28;94836.47;5088708;28;20473;-57
2022/12/09 00:26:44;;;;;;;18.60;11.50;;;8.30;99.90;;;8.31;70.87;94853.28;5077738;28;20553;-57
2022/12/09 00:29:11;;;;;;;27.47;14.33;;;8.40;99.90;;;8.30;70.73;94831.47;5077255;28;20558;-55
2022/12/09 00:31:39;;;;;;;29.37;13.90;;;8.30;99.90;;;8.30;70.40;94843.75;5074407;28;20453;-57
2022/12/09 00:34:07;;;;;;;26.37;13.23;;;8.30;99.90;;;8.29;70.55;94857.81;5073071;28;20477;-57
2022/12/09 00:36:36;;;;;;;24.63;14.37;;;8.30;99.90;;;8.29;71.01;94844.72;5076777;28;21021;-56
2022/12/09 00:39:03;;;;;;;22.17;11.97;;;8.30;99.90;;;8.29;70.89;94855.19;5082821;28;20481;-56
2022/12/09 00:41:30;;;;;;;19.37;11.83;;;8.30;99.90;;;8.30;71.12;94851.63;5069802;28;20728;-56
2022/12/09 00:43:58;;;;;;;18.60;11.63;;;8.30;99.90;;;8.32;70.95;94849.69;5074448;28;20457;-55
2022/12/09 00:46:25;;;;;;;21.27;11.50;;;8.30;99.90;;;8.33;70.79;94862.69;5069940;28;20465;-58
2022/12/09 00:48:52;;;;;;;19.90;12.47;;;8.30;99.90;;;8.35;70.59;94857.31;5075080;28;20455;-53
2022/12/09 00:51:21;;;;;;;18.43;12.63;;;8.40;99.90;;;8.36;70.86;94851.13;5080911;28;20464;-55
2022/12/09 00:53:53;;;;;;;17.73;10.80;;;8.40;99.90;;;8.38;71.06;94844.81;5076882;28;20458;-57
2022/12/09 00:56:20;;;;;;;19.30;11.20;;;8.40;99.90;;;8.42;70.95;94845.38;5078721;28;20510;-55
2022/12/09 00:58:47;;;;;;;21.63;10.50;;;8.40;99.90;;;8.46;70.98;94849.44;5075476;28;20469;-56
2022/12/09 01:01:15;;;;;;;22.50;12.70;;;8.50;99.90;;;8.46;70.66;94841.56;5081672;28;20580;-57
2022/12/09 01:03:42;;;;;;;22.23;13.00;;;8.50;99.90;;;8.46;70.32;94849.44;5078515;28;20446;-55
2022/12/09 01:06:10;;;;;;;16.00;11.93;;;8.50;99.90;;;8.47;70.76;94831.91;5079281;28;20478;-54
2022/12/09 01:08:38;;;;;;;18.97;11.80;;;8.50;99.90;;;8.44;70.52;94835.63;5075940;28;20873;-56
2022/12/09 01:11:11;;;;;;;19.93;10.67;;;8.50;99.90;;;8.40;70.79;94835.00;5083396;28;20469;-59
2022/12/09 01:13:38;;;;;;;22.33;11.43;;;8.40;99.90;;;8.40;70.68;94845.50;5079769;28;20459;-55
2022/12/09 01:16:13;;;;;;;22.73;12.30;;;8.40;99.90;;;8.39;70.85;94837.75;5082183;28;20842;-57
2022/12/09 01:18:40;;;;;;;15.97;11.00;;;8.40;99.90;;;8.38;70.80;94834.31;5078835;28;20672;-56
2022/12/09 01:21:07;;;;;;;21.97;13.97;;;8.40;99.90;;;8.34;70.93;94837.31;5084296;28;20571;-58
2022/12/09 01:23:34;;;;;;;19.30;12.23;;;8.40;99.90;;;8.33;70.66;94846.13;5083420;28;20462;-54
2022/12/09 01:26:04;;;;;;;25.10;12.33;;;8.40;99.90;;;8.31;70.52;94838.41;5083545;28;20489;-55
2022/12/09 01:28:33;;;;;;;20.73;12.50;;;8.30;99.90;;;8.30;70.74;94841.97;5079024;28;20481;-55
2022/12/09 01:31:06;;;;;;;21.00;11.73;;;8.30;99.90;;;8.32;70.49;94849.69;5083487;28;20477;-56
2022/12/09 01:33:34;;;;;;;23.83;13.13;;;8.30;99.90;;;8.30;71.07;94846.38;5078521;28;20579;-55
2022/12/09 01:36:03;;;;;;;19.83;12.33;;;8.30;99.90;;;8.28;70.87;94848.31;5079539;28;20492;-54
2022/12/09 01:38:30;;;;;;;20.63;11.87;;;8.30;99.90;;;8.27;70.83;94847.47;5078842;28;20522;-55
2022/12/09 01:40:58;;;;;;;21.00;11.50;;;8.30;99.90;;;8.25;71.05;94838.91;5080394;28;20497;-55
2022/12/09 01:43:25;;;;;;;20.47;13.00;;;8.30;99.90;;;8.23;71.06;94836.41;5083334;28;20446;-58
2022/12/09 01:45:54;;;;;;;19.00;12.20;;;8.30;99.90;;;8.22;71.08;94834.75;5075276;28;20487;-55
2022/12/09 01:48:23;;;;;;;23.23;12.37;;;8.30;99.90;;;8.21;70.72;94832.25;5082323;28;20507;-54
2022/12/09 01:50:52;;;;;;;20.50;11.90;;;8.30;99.90;;;8.16;70.95;94832.63;5079042;28;20496;-56
2022/12/09 01:53:24;;;;;;;22.77;11.73;;;8.20;99.90;;;8.14;71.13;94834.53;5079920;28;20453;-57
2022/12/09 01:55:51;;;;;;;21.63;11.07;;;8.20;99.90;;;8.12;71.07;94836.47;5081782;28;20463;-55
2022/12/09 01:58:18;;;;;;;17.43;11.60;;;8.20;99.90;;;8.14;70.77;94841.59;5083932;28;20460;-57
2022/12/09 02:00:45;;;;;;;32.30;12.17;;;8.20;99.90;;;8.14;70.80;94850.25;5080797;28;20846;-56
2022/12/09 02:03:14;;;;;;;21.83;12.30;;;8.20;99.90;;;8.14;70.74;94824.06;5082175;28;20476;-56
2022/12/09 02:05:41;;;;;;;18.83;11.93;;;8.20;99.90;;;8.13;70.57;94814.53;5081432;28;20473;-55
2022/12/09 02:08:12;;;;;;;25.43;12.73;;;8.20;99.90;;;8.14;71.08;94813.59;5083839;28;20462;-56
2022/12/09 02:10:42;;;;;;;22.40;13.90;;;8.10;99.90;;;8.13;70.68;94813.72;5082168;28;20483;-57
2022/12/09 02:13:14;;;;;;;17.83;10.93;;;8.20;99.90;;;8.11;70.84;94819.06;5078974;28;20454;-56
2022/12/09 02:15:43;;;;;;;18.87;12.13;;;8.10;99.90;;;8.11;71.34;94811.22;5082276;28;20494;-57
2022/12/09 02:18:16;;;;;;;19.67;12.30;;;8.20;99.90;;;8.10;71.26;94820.03;5070251;28;20486;-55
2022/12/09 02:20:46;;;;;;;22.77;10.87;;;8.10;99.90;;;8.05;71.27;94811.72;5072627;28;20474;-55
2022/12/09 02:23:18;;;;;;;20.13;12.03;;;8.10;99.90;;;8.00;70.96;94819.13;5077414;28;20528;-56
2022/12/09 02:25:47;;;;;;;21.73;11.90;;;8.10;99.90;;;7.97;71.19;94814.97;5080898;28;20469;-56
2022/12/09 02:28:57;;;;;;;19.30;11.87;;;8.00;99.90;;;7.96;71.22;94817.72;5072796;28;20466;-55
2022/12/09 02:31:36;;;;;;;19.27;11.50;;;8.00;99.90;;;7.93;71.22;94821.41;5074546;28;20569;-55
2022/12/09 02:34:11;;;;;;;21.93;12.77;;;8.00;99.90;;;7.92;71.98;94811.91;5078370;28;20458;-53
2022/12/09 02:36:46;;;;;;;24.17;12.77;;;8.00;99.90;;;7.93;72.11;94823.19;5081709;28;20469;-57
2022/12/09 02:39:13;;;;;;;24.43;12.00;;;8.00;99.90;;;7.93;72.11;94829.25;5080625;28;20804;-56
2022/12/09 02:41:41;;;;;;;22.43;13.17;;;8.00;99.90;;;7.96;72.00;94828.19;5078924;28;21042;-54
2022/12/09 02:44:13;;;;;;;20.70;12.47;;;8.00;99.90;;;7.97;71.63;94829.88;5077150;28;21025;-56
2022/12/09 02:46:41;;;;;;;25.23;12.13;;;8.00;99.90;;;7.99;71.76;94827.94;5072398;28;20959;-56
2022/12/09 02:49:10;;;;;;;18.80;11.83;;;8.00;99.90;;;7.99;71.91;94838.41;5081230;28;20484;-55
2022/12/09 02:51:40;;;;;;;22.47;13.67;;;8.00;99.90;;;7.99;71.15;94835.78;5075796;28;20455;-55
2022/12/09 02:54:09;;;;;;;20.90;12.17;;;8.00;99.90;;;8.02;71.57;94833.75;5079117;28;20471;-55
2022/12/09 02:56:37;;;;;;;23.57;14.00;;;8.00;99.90;;;8.02;71.77;94838.97;5081780;28;20915;-56
2022/12/09 02:59:04;;;;;;;19.80;11.80;;;8.00;99.90;;;8.04;71.33;94844.09;5082170;28;20967;-54
2022/12/09 03:01:35;;;;;;;28.00;14.10;;;8.10;99.90;;;8.06;71.89;94842.22;5082893;28;20511;-55
2022/12/09 03:04:02;;;;;;;22.53;13.30;;;8.10;99.90;;;8.06;71.21;94840.41;5074109;28;20921;-56
2022/12/09 03:06:35;;;;;;;30.10;15.23;;;8.10;99.90;;;8.06;71.97;94839.59;5079699;28;20458;-56
2022/12/09 03:09:05;;;;;;;23.50;14.20;;;8.10;99.90;;;8.03;71.41;94845.06;5074730;28;20463;-57
2022/12/09 03:11:32;;;;;;;26.17;15.10;;;8.10;99.90;;;8.01;71.34;94831.25;5083627;28;20993;-57
2022/12/09 03:14:02;;;;;;;27.00;14.87;;;8.00;99.90;;;7.96;71.65;94855.19;5080763;28;21076;-56
2022/12/09 03:16:33;;;;;;;32.63;17.87;;;8.00;99.90;;;7.93;71.50;94850.22;5081579;28;20482;-55
2022/12/09 03:19:03;;;;;;;29.37;16.93;;;7.90;99.90;;;7.90;72.63;94835.59;5078076;28;20439;-55
2022/12/09 03:21:34;;;;;;;29.50;14.73;;;8.00;99.90;;;7.92;72.12;94847.72;5077063;28;20477;-56
2022/12/09 03:24:01;;;;;;;30.40;17.10;;;7.90;99.90;;;7.92;72.20;94832.00;5083295;28;20881;-55
2022/12/09 03:26:30;;;;;;;27.57;14.90;;;7.90;99.90;;;7.92;71.66;94842.47;5083569;28;20991;-56
2022/12/09 03:28:58;;;;;;;31.43;16.60;;;7.90;99.90;;;7.89;71.96;94826.06;5080748;28;20470;-56
2022/12/09 03:31:26;;;;;;;26.27;15.93;;;7.90;99.90;;;7.88;72.27;94827.03;5080051;28;20446;-56
2022/12/09 03:33:55;;;;;;;28.67;15.77;;;7.90;99.90;;;7.88;71.93;94813.94;5078143;28;20564;-56
2022/12/09 03:36:23;;;;;;;23.30;13.90;;;7.90;99.90;;;7.87;72.05;94817.50;5080566;28;20466;-56
2022/12/09 03:38:51;;;;;;;26.73;15.10;;;7.90;99.90;;;7.85;71.97;94829.91;5081571;28;20976;-56
2022/12/09 03:41:21;;;;;;;30.13;15.03;;;7.90;99.90;;;7.81;72.96;94815.38;5078431;28;20546;-56
2022/12/09 03:43:52;;;;;;;26.17;14.23;;;7.90;99.90;;;7.81;71.85;94825.88;5078071;28;20470;-57
2022/12/09 03:46:19;;;;;;;25.67;13.83;;;7.90;99.90;;;7.82;71.98;94818.84;5073761;28;20537;-60
2022/12/09 03:48:46;;;;;;;26.43;14.80;;;7.90;99.90;;;7.84;72.16;94822.19;5076392;28;20536;-57
2022/12/09 03:51:16;;;;;;;36.17;13.73;;;7.90;99.90;;;7.87;72.45;94821.94;5081373;28;20490;-57
2022/12/09 03:53:45;;;;;;;24.30;15.20;;;7.90;99.90;;;7.89;72.64;94827.88;5077128;28;20566;-57
2022/12/09 03:56:17;;;;;;;22.57;14.10;;;7.90;99.90;;;7.86;73.04;94815.84;5075712;28;20515;-54
2022/12/09 03:58:45;;;;;;;26.87;15.30;;;7.90;99.90;;;7.87;72.46;94827.16;5074890;28;20462;-56
2022/12/09 04:01:12;;;;;;;29.73;14.20;;;7.90;99.90;;;7.87;72.95;94822.75;5080729;28;20980;-56
2022/12/09 04:03:39;;;;;;;26.83;14.33;;;7.90;99.90;;;7.86;72.80;94834.16;5078500;28;20462;-56
2022/12/09 04:06:08;;;;;;;27.90;14.10;;;7.90;99.90;;;7.88;72.70;94832.28;5073701;28;20486;-57
2022/12/09 04:08:35;;;;;;;25.67;13.83;;;7.90;99.90;;;7.88;72.34;94829.66;5073917;28;20455;-55
2022/12/09 04:11:02;;;;;;;28.47;14.60;;;7.90;99.90;;;7.88;72.54;94823.56;5080921;28;20475;-55
2022/12/09 04:13:31;;;;;;;27.17;15.73;;;7.90;99.90;;;7.90;72.18;94816.44;5080578;28;20985;-57
2022/12/09 04:15:58;;;;;;;24.10;14.53;;;7.90;99.90;;;7.90;71.99;94825.13;5079524;28;20536;-56
2022/12/09 04:18:25;;;;;;;30.57;16.10;;;7.90;99.90;;;7.89;72.40;94831.31;5079176;28;20486;-55
2022/12/09 04:20:52;;;;;;;26.97;14.30;;;7.90;99.90;;;7.90;72.01;94829.53;5078924;28;20486;-59
2022/12/09 04:23:20;;;;;;;29.07;15.40;;;7.90;99.90;;;7.92;72.37;94839.84;5077674;28;20446;-55
2022/12/09 04:25:47;;;;;;;31.27;17.00;;;7.90;99.90;;;7.89;72.41;94833.91;5081582;28;20589;-56
2022/12/09 04:28:15;;;;;;;24.37;15.50;;;7.90;99.90;;;7.89;73.33;94846.19;5077958;28;20466;-56
2022/12/09 04:30:46;;;;;;;30.90;16.20;;;7.90;99.90;;;7.87;72.32;94835.03;5069884;28;20485;-55
2022/12/09 04:33:13;;;;;;;28.33;15.07;;;7.90;99.90;;;7.87;72.62;94821.94;5077861;28;20465;-55
2022/12/09 04:35:41;;;;;;;26.33;16.10;;;7.90;99.90;;;7.88;72.37;94842.75;5073357;28;20540;-58
2022/12/09 04:38:08;;;;;;;24.57;15.70;;;7.90;99.90;;;7.89;72.27;94833.09;5079494;28;20494;-56
2022/12/09 04:40:35;;;;;;;32.40;18.07;;;7.90;99.90;;;7.90;72.77;94846.06;5074384;28;20473;-56
2022/12/09 04:43:03;;;;;;;28.00;16.40;;;7.90;99.90;;;7.92;72.51;94835.47;5084774;28;20466;-56
2022/12/09 04:45:30;;;;;;;27.50;15.80;;;8.00;99.90;;;7.93;71.92;94823.19;5081316;28;20474;-56
2022/12/09 04:48:00;;;;;;;25.97;14.77;;;8.00;99.90;;;7.93;72.66;94825.81;5081600;28;20473;-54
2022/12/09 04:50:27;;;;;;;29.10;16.17;;;7.90;99.90;;;7.92;71.90;94837.25;5076988;28;20478;-56
2022/12/09 04:52:54;;;;;;;33.40;17.50;;;7.90;99.90;;;7.92;72.38;94838.09;5085553;28;20454;-55
2022/12/09 04:55:22;;;;;;;30.00;17.63;;;8.00;99.90;;;7.90;72.62;94835.59;5078108;28;20474;-55
2022/12/09 04:57:49;;;;;;;33.37;19.33;;;7.90;99.90;;;7.89;71.99;94844.41;5082051;28;20493;-58
2022/12/09 05:00:19;;;;;;;43.23;17.50;;;7.90;99.90;;;7.87;72.64;94828.00;5075590;28;20789;-55
2022/12/09 05:02:46;;;;;;;34.90;16.10;;;7.90;99.90;;;7.85;72.73;94843.00;5078805;28;20501;-56
2022/12/09 05:05:15;;;;;;;29.40;16.10;;;7.90;99.90;;;7.81;72.63;94841.56;5076425;28;20474;-55
2022/12/09 05:07:42;;;;;;;28.67;18.60;;;7.90;99.90;;;7.82;72.20;94837.16;5080471;28;20453;-55
2022/12/09 05:10:10;;;;;;;30.47;16.30;;;7.90;99.90;;;7.81;72.88;94838.97;5074598;28;20459;-54
2022/12/09 05:12:37;;;;;;;33.27;16.80;;;7.90;99.90;;;7.81;72.32;94846.81;5082128;28;20540;-57
2022/12/09 05:15:05;;;;;;;31.43;17.67;;;7.80;99.90;;;7.81;72.27;94849.44;5086711;28;20986;-56
2022/12/09 05:17:33;;;;;;;31.30;16.77;;;7.90;99.90;;;7.80;72.86;94842.53;5084385;28;20929;-55
2022/12/09 05:20:00;;;;;;;37.53;17.40;;;7.90;99.90;;;7.79;72.96;94848.72;5086184;28;20470;-54
2022/12/09 05:22:29;;;;;;;27.33;17.90;;;7.80;99.90;;;7.79;73.17;94817.31;5084374;28;20453;-55
2022/12/09 05:24:56;;;;;;;26.20;17.30;;;7.80;99.90;;;7.78;72.71;94838.38;5085612;28;20457;-55
2022/12/09 05:27:23;;;;;;;26.80;16.13;;;7.80;99.90;;;7.74;72.80;94823.88;5085807;28;20442;-58
2022/12/09 05:29:51;;;;;;;25.67;16.20;;;7.80;99.90;;;7.69;72.58;94832.09;5083701;28;20514;-55
2022/12/09 05:32:18;;;;;;;31.20;15.93;;;7.80;99.90;;;7.64;73.40;94845.53;5085095;28;20567;-54
2022/12/09 05:34:46;;;;;;;32.67;17.23;;;7.70;99.90;;;7.63;73.12;94840.44;5081845;28;20533;-55
2022/12/09 05:37:14;;;;;;;37.50;17.20;;;7.70;99.90;;;7.62;72.94;94844.00;5081110;28;20509;-53
2022/12/09 05:39:43;;;;;;;29.27;16.10;;;7.70;99.90;;;7.63;73.55;94845.66;5081336;28;20506;-55
2022/12/09 05:42:10;;;;;;;26.70;16.20;;;7.70;99.90;;;7.64;73.64;94861.25;5082255;28;20445;-55
2022/12/09 05:44:38;;;;;;;24.53;15.23;;;7.70;99.90;;;7.65;74.18;94848.97;5077031;28;20481;-54
2022/12/09 05:47:05;;;;;;;22.20;12.70;;;7.70;99.90;;;7.65;73.62;94862.06;5075234;28;20450;-56
2022/12/09 05:49:33;;;;;;;23.60;13.17;;;7.70;99.90;;;7.64;73.41;94861.25;5079592;28;21013;-57
2022/12/09 05:52:00;;;;;;;26.63;14.30;;;7.70;99.90;;;7.68;74.20;94840.88;5075789;28;20441;-55
2022/12/09 05:54:28;;;;;;;24.10;12.23;;;7.70;99.90;;;7.68;73.74;94853.97;5079423;28;20527;-56
2022/12/09 05:56:56;;;;;;;27.27;14.77;;;7.70;99.90;;;7.71;73.52;94862.44;5077555;28;20511;-56
2022/12/09 05:59:24;;;;;;;26.43;14.93;;;7.80;99.90;;;7.74;74.06;94863.13;5081933;28;20474;-55
2022/12/09 06:01:52;;;;;;;22.47;13.53;;;7.80;99.90;;;7.79;74.13;94853.97;5076258;28;20459;-56
2022/12/09 06:04:19;;;;;;;21.13;14.93;;;7.80;99.90;;;7.84;73.71;94850.97;5080487;28;20517;-55
2022/12/09 06:06:47;;;;;;;24.33;14.23;;;7.90;99.90;;;7.88;73.13;94837.53;5075478;28;20462;-56
2022/12/09 06:09:14;;;;;;;22.83;14.07;;;7.90;99.90;;;7.90;73.13;94846.06;5074420;28;20561;-57
2022/12/09 06:11:41;;;;;;;24.30;14.40;;;8.00;99.90;;;7.94;73.47;94857.13;5075831;28;20463;-57
2022/12/09 06:14:11;;;;;;;33.87;16.80;;;8.00;99.90;;;7.97;73.85;94849.00;5074811;28;20470;-56
2022/12/09 06:16:38;;;;;;;24.87;14.00;;;8.00;99.90;;;7.97;73.27;94867.34;5074919;28;20578;-56
2022/12/09 06:19:05;;;;;;;28.13;15.17;;;8.00;99.90;;;7.96;73.19;94870.91;5079187;28;20499;-56
2022/12/09 06:21:32;;;;;;;25.50;17.03;;;8.00;99.90;;;7.98;73.44;94878.66;5075217;28;20458;-55
2022/12/09 06:24:00;;;;;;;26.87;16.00;;;8.00;99.90;;;8.00;73.56;94874.97;5073818;28;20501;-56
2022/12/09 06:26:29;;;;;;;32.23;18.47;;;8.00;99.90;;;8.04;73.18;94880.78;5075080;28;20447;-56
2022/12/09 06:28:56;;;;;;;38.17;21.20;;;8.00;99.90;;;8.07;73.11;94877.91;5079303;28;20465;-56
2022/12/09 06:31:25;;;;;;;35.03;20.90;;;8.10;99.90;;;8.11;72.85;94879.31;5079491;28;20489;-56
2022/12/09 06:33:52;;;;;;;36.77;21.37;;;8.10;99.90;;;8.13;72.63;94877.41;5080644;28;20457;-55
2022/12/09 06:36:20;;;;;;;39.50;23.90;;;8.10;99.90;;;8.16;72.84;94876.34;5079100;28;20451;-56
2022/12/09 06:38:47;;;;;;;40.00;20.53;;;8.20;99.90;;;8.17;72.61;94889.31;5084277;28;20486;-57
2022/12/09 06:41:15;;;;;;;40.70;21.83;;;8.20;99.90;;;8.17;73.07;94891.94;5079091;28;21014;-55
2022/12/09 06:43:42;;;;;;;39.80;21.43;;;8.20;99.90;;;8.20;72.42;94881.19;5081433;28;20454;-56
2022/12/09 06:46:13;;;;;;;34.80;20.73;;;8.20;99.90;;;8.25;72.35;94891.31;5075010;28;20471;-56
2022/12/09 06:48:41;;;;;;;32.43;17.67;;;8.20;99.90;;;8.29;72.20;94886.63;5082280;28;20454;-57
2022/12/09 06:51:09;;;;;;;34.43;16.53;;;8.30;99.90;;;8.35;72.71;94886.13;5078410;28;20470;-55
2022/12/09 06:53:36;;;;;;;35.00;18.70;;;8.40;99.90;;;8.41;73.46;94883.88;5082421;28;21025;-52
2022/12/09 06:56:04;;;;;;;26.77;15.93;;;8.40;99.90;;;8.51;74.28;94881.34;5078271;28;20559;-56
2022/12/09 06:58:32;;;;;;;40.23;19.97;;;8.50;99.90;;;8.58;73.30;94882.50;5085561;28;20482;-56
2022/12/09 07:01:05;;;;;;;35.60;19.53;;;8.60;99.90;;;8.61;72.78;94897.13;5078850;28;21063;-55
2022/12/09 07:03:32;;;;;;;40.73;19.67;;;8.60;99.90;;;8.61;72.49;94891.88;5081801;28;20446;-56
2022/12/09 07:06:01;;;;;;;35.93;21.03;;;8.60;99.90;;;8.59;72.46;94885.94;5078321;28;20474;-56
2022/12/09 07:08:29;;;;;;;40.83;21.77;;;8.60;99.90;;;8.59;72.64;94884.16;5078017;28;20511;-56
2022/12/09 07:10:56;;;;;;;34.17;20.13;;;8.60;99.90;;;8.68;73.56;94894.84;5078446;28;20516;-63
2022/12/09 07:13:24;;;;;;;34.70;19.60;;;8.70;99.90;;;8.75;73.16;94898.59;5078724;28;20546;-56
2022/12/09 07:15:51;;;;;;;42.60;23.67;;;8.70;99.90;;;8.85;72.86;94891.63;5080438;28;20851;-55
2022/12/09 07:18:18;;;;;;;34.80;21.93;;;8.80;99.90;;;8.92;72.22;94890.16;5078891;28;20538;-56
2022/12/09 07:20:46;;;;;;;36.40;20.13;;;8.90;99.90;;;9.01;72.17;94888.53;5081441;28;20539;-55
2022/12/09 07:23:15;;;;;;;45.30;20.83;;;9.00;99.90;;;9.07;72.14;94887.22;5077434;28;20450;-56
2022/12/09 07:25:42;;;;;;;31.10;17.53;;;9.00;99.90;;;9.14;71.44;94883.09;5078612;28;20477;-54
2022/12/09 07:28:09;;;;;;;32.20;17.20;;;9.10;99.90;;;9.17;71.33;94888.09;5070584;28;20455;-55
2022/12/09 07:30:38;;;;;;;34.63;18.23;;;9.20;99.90;;;9.19;71.06;94893.22;5074749;28;20532;-55
2022/12/09 07:33:05;;;;;;;34.60;18.20;;;9.20;99.90;;;9.20;70.99;94886.97;5077540;28;20830;-55
2022/12/09 07:35:32;;;;;;;33.53;18.00;;;9.20;99.90;;;9.21;71.08;94894.72;5082091;28;20477;-57
2022/12/09 07:38:00;;;;;;;28.47;17.63;;;9.20;99.90;;;9.24;70.94;94897.09;5081806;28;20489;-57
2022/12/09 07:40:28;;;;;;;34.90;18.23;;;9.20;99.90;;;9.28;71.07;94895.88;5078822;28;20981;-56
2022/12/09 07:42:56;;;;;;;33.27;18.87;;;9.30;99.90;;;9.33;70.98;94898.94;5080226;28;20454;-56
2022/12/09 07:45:23;;;;;;;40.13;21.60;;;9.30;99.90;;;9.37;70.85;94889.00;5075261;28;20556;-56
2022/12/09 07:47:50;;;;;;;42.27;20.37;;;9.30;99.90;;;9.43;70.96;94885.00;5077589;28;20446;-56
2022/12/09 07:50:18;;;;;;;40.40;19.87;;;9.40;99.90;;;9.47;71.02;94889.88;5081136;28;21034;-55
2022/12/09 07:52:45;;;;;;;35.20;20.27;;;9.50;99.90;;;9.51;70.51;94882.53;5077826;28;20454;-56
2022/12/09 07:55:12;;;;;;;30.67;17.90;;;9.50;99.90;;;9.57;70.50;94881.19;5081406;28;20845;-57
2022/12/09 07:57:41;;;;;;;38.90;18.97;;;9.50;99.90;;;9.59;70.60;94874.84;5081270;28;20848;-56
2022/12/09 08:00:10;;;;;;;38.97;20.53;;;9.60;99.90;;;9.65;70.62;94878.72;5080503;28;20509;-55
2022/12/09 08:02:38;;;;;;;37.40;20.33;;;9.60;99.90;;;9.70;70.45;94889.69;5078275;28;20552;-55
2022/12/09 08:05:06;;;;;;;33.37;20.47;;;9.70;99.90;;;9.74;70.50;94888.41;5079517;28;20470;-55
2022/12/09 08:07:34;;;;;;;38.93;21.60;;;9.70;99.90;;;9.77;70.35;94884.72;5078897;28;20823;-58
2022/12/09 08:10:01;;;;;;;39.80;21.70;;;9.70;99.90;;;9.81;70.40;94881.69;5075516;28;20474;-57
2022/12/09 08:12:28;;;;;;;35.03;20.03;;;9.70;99.90;;;9.86;70.15;94883.91;5079748;28;20465;-58
2022/12/09 08:14:57;;;;;;;36.43;21.93;;;9.80;99.90;;;9.94;70.14;94886.66;5078053;28;20470;-55
2022/12/09 08:17:25;;;;;;;38.77;20.70;;;9.90;99.90;;;10.01;69.89;94898.31;5079546;28;20455;-57
2022/12/09 08:19:53;;;;;;;43.23;21.80;;;10.00;99.90;;;10.09;69.65;94891.56;5078672;28;20628;-57
2022/12/09 08:22:20;;;;;;;35.27;21.83;;;10.00;99.90;;;10.17;69.46;94902.22;5079354;28;20504;-57
2022/12/09 08:24:47;;;;;;;47.57;22.43;;;10.10;99.90;;;10.23;69.45;94901.66;5074169;28;20486;-56
2022/12/09 08:27:15;;;;;;;53.37;22.53;;;10.20;99.90;;;10.32;69.59;94895.59;5079713;28;20454;-55
2022/12/09 08:29:42;;;;;;;40.63;22.70;;;10.30;99.90;;;10.46;69.74;94890.94;5080766;28;20473;-56
2022/12/09 08:32:11;;;;;;;36.43;21.20;;;10.40;99.90;;;10.62;68.56;94883.28;5076498;28;20994;-55
2022/12/09 08:34:38;;;;;;;34.57;20.57;;;10.50;99.90;;;10.79;68.53;94887.00;5078700;28;21057;-56
2022/12/09 08:37:06;;;;;;;38.23;22.67;;;10.70;99.90;;;10.97;68.21;94894.16;5080293;28;20486;-56
2022/12/09 08:39:33;;;;;;;43.73;22.60;;;10.80;99.90;;;11.09;67.92;94888.63;5077799;28;20987;-54
2022/12/09 08:42:00;;;;;;;38.57;21.73;;;11.00;99.90;;;11.19;67.21;94890.41;5081127;28;20464;-55
2022/12/09 08:44:28;;;;;;;35.63;20.70;;;11.10;99.90;;;11.23;67.04;94884.72;5071687;28;20479;-55
2022/12/09 08:46:55;;;;;;;42.50;21.50;;;11.10;99.90;;;11.27;67.05;94879.97;5080748;28;20458;-57
2022/12/09 08:49:24;;;;;;;46.03;22.70;;;11.20;99.90;;;11.32;67.19;94867.19;5077518;28;20478;-55
2022/12/09 08:51:52;;;;;;;33.90;21.37;;;11.20;99.90;;;11.40;66.91;94863.84;5077291;28;20889;-56
2022/12/09 08:54:20;;;;;;;48.13;22.40;;;11.30;99.90;;;11.50;66.63;94848.00;5074417;28;20912;-57
2022/12/09 08:56:47;;;;;;;42.63;20.67;;;11.40;99.90;;;11.69;66.30;94849.72;5080695;28;20469;-57
2022/12/09 08:59:15;;;;;;;36.03;20.20;;;11.60;99.90;;;11.98;65.95;94844.31;5072151;28;20486;-56
2022/12/09 09:01:42;;;;;;;28.37;19.77;;;11.80;99.90;;;12.36;64.32;94821.22;5079154;28;20453;-56
2022/12/09 09:04:12;;;;;;;38.83;19.23;;;12.10;99.90;;;12.75;65.08;94812.97;5075342;28;20486;-56
2022/12/09 09:06:41;;;;;;;38.87;19.63;;;12.50;99.90;;;13.15;63.97;94811.56;5080237;28;21078;-56
2022/12/09 09:09:09;;;;;;;46.90;21.47;;;12.80;99.90;;;13.48;63.13;94819.69;5076963;28;20474;-56
2022/12/09 09:11:37;;;;;;;64.37;24.87;;;13.20;99.90;;;13.80;62.14;94816.31;5080380;28;20438;-56
2022/12/09 09:14:05;;;;;;;45.03;22.97;;;13.60;99.90;;;14.15;61.90;94821.50;5076601;28;20561;-57
2022/12/09 09:16:33;;;;;;;71.23;22.83;;;13.90;99.90;;;14.47;60.88;94810.13;5081214;28;20911;-53
2022/12/09 09:19:01;;;;;;;72.30;22.97;;;14.10;99.10;;;14.69;60.31;94803.38;5076645;28;20612;-56
2022/12/09 09:21:29;;;;;;;59.73;24.07;;;14.40;98.70;;;14.84;59.99;94815.91;5078690;28;21170;-55
2022/12/09 09:23:57;;;;;;;53.43;22.90;;;14.60;98.50;;;15.05;59.52;94810.91;5073012;28;20792;-57
2022/12/09 09:26:26;;;;;;;45.37;21.50;;;14.80;98.00;;;15.29;58.54;94793.34;5074833;28;20461;-56
2022/12/09 09:28:54;;;;;;;39.77;21.57;;;15.00;97.40;;;15.64;57.31;94791.19;5082917;28;20504;-57
2022/12/09 09:31:22;;;;;;;60.30;23.87;;;15.40;96.40;;;16.20;57.90;94787.59;5077485;28;20458;-56
2022/12/09 09:33:50;;;;;;;60.10;20.67;;;15.80;97.00;;;16.82;56.79;94784.78;5081002;28;20447;-55
2022/12/09 09:36:19;;;;;;;35.30;21.40;;;16.40;96.40;;;17.38;54.60;94772.91;5081641;28;20558;-57
2022/12/09 09:38:46;;;;;;;50.30;21.90;;;16.90;94.50;;;17.79;52.20;94764.41;5083310;28;20535;-56
2022/12/09 09:41:28;;;;;;;46.77;20.80;;;17.30;92.30;;;18.05;52.03;94755.13;5080496;28;20819;-56
2022/12/09 09:43:55;;;;;;;40.83;18.77;;;17.60;92.20;;;18.30;52.77;94758.22;5081779;28;20464;-55
2022/12/09 09:46:31;;;;;;;34.97;17.67;;;17.90;92.50;;;18.53;52.43;94755.38;5080866;28;20452;-55
2022/12/09 09:48:58;;;;;;;59.37;17.00;;;18.10;91.90;;;18.97;52.10;94762.28;5083528;28;20458;-55
2022/12/09 09:51:25;;;;;;;30.90;19.07;;;18.60;91.40;;;19.61;50.55;94765.75;5079688;28;20538;-55
2022/12/09 09:53:53;;;;;;;178.70;27.20;;;19.10;90.10;;;20.24;46.44;94756.72;5078889;28;20450;-56
2022/12/09 09:56:27;;;;;;;46.03;19.17;;;19.70;83.80;;;20.81;47.76;94748.38;5079915;28;20874;-54
2022/12/09 09:59:03;;;;;;;93.17;17.93;;;20.30;84.80;;;21.38;46.05;94746.00;5083801;28;20522;-56
2022/12/09 10:01:33;;;;;;;45.40;16.63;;;20.70;82.50;;;21.92;45.81;94735.94;5081064;28;20441;-56
2022/12/09 10:04:04;;;;;;;195.03;26.20;;;21.30;79.90;;;22.23;44.60;94719.09;5080387;28;20451;-56
2022/12/09 10:06:37;;;;;;;33.33;15.20;;;21.60;76.60;;;22.19;42.83;94713.34;5082794;28;20813;-57
2022/12/09 10:09:09;;;;;;;79.53;18.83;;;21.70;72.20;;;21.95;44.11;94708.75;5079507;28;20456;-56
2022/12/09 10:11:40;;;;;;;43.30;13.50;;;21.60;72.00;;;21.53;44.72;94711.00;5082692;28;20507;-56
2022/12/09 10:14:15;;;;;;;40.13;15.70;;;21.30;71.70;;;21.04;43.54;94699.81;5080149;28;20462;-56
2022/12/09 10:16:44;;;;;;;44.43;15.10;;;21.00;69.50;;;20.59;45.04;94700.44;5079958;28;20442;-60
2022/12/09 10:19:26;;;;;;;356.50;34.57;;;20.60;69.90;;;20.10;44.89;94694.44;5081249;28;20489;-56
2022/12/09 10:21:54;;;;;;;47.83;15.33;;;20.10;70.20;;;19.59;46.62;94685.06;5079339;28;20493;-54